EW4129 Weather Reports


Display with metric or nautical units.
time (UTC)temp
F
wind
direction
speed
MPH
gust
MPH
rain 1hr
in
rain 24hr
in
rain mn
in
humidity
%
barometer
mb
20190319185519 59 304 2.0 5.0 0.00 0.00 0.00 75 1012.2
20190319184519 59 309 3.0 5.0 0.00 0.00 0.00 74 1012.5
20190319183519 60 304 3.0 7.0 0.00 0.00 0.00 75 1012.6
20190319182520 60 328 3.0 5.0 0.00 0.00 0.00 76 1012.8
20190319181519 60 144 2.0 4.0 0.00 0.00 0.00 76 1012.8
20190319180520 60 189 2.0 4.0 0.00 0.00 0.00 75 1012.8
20190319175518 59 182 1.0 2.0 0.00 0.00 0.00 76 1012.8
20190319174518 57 180 1.0 2.0 0.00 0.00 0.00 79 1012.9
20190319173519 57 271 0.0 2.0 0.00 0.00 0.00 82 1012.9
20190319172517 56 202 0.0 2.0 0.00 0.00 0.00 83 1012.9
20190319171517 56 113 1.0 2.0 0.00 0.00 0.00 84 1013.1
20190319170516 56 255 1.0 2.0 0.00 0.00 0.00 85 1013.2
20190319165517 56 318 0.0 2.0 0.00 0.00 0.00 86 1013.2
20190319164517 56 181 1.0 3.0 0.00 0.00 0.00 86 1013.3
20190319163517 55 337 0.0 2.0 0.00 0.00 0.00 87 1013.2
20190319162517 54 67 0.0 2.0 0.00 0.00 0.00 87 1013.2
20190319162019 54 111 0.0 1.0 0.00 0.00 0.00 87 1013.2
20190319161018 53 108 2.0 3.0 0.00 0.00 0.00 87 1013.2
20190319160019 53 130 1.0 4.0 0.00 0.00 0.00 87 1013.2
20190319155024 53 116 2.0 6.0 0.00 0.00 0.00 87 1013.2
20190319154019 53 94 3.0 5.0 0.00 0.00 0.00 89 1013.3
20190319153018 52 0.0 0.0 0.00 0.00 0.00 91 1013.2
20190319152019 52 111 0.0 1.0 0.00 0.00 0.00 91 1013.2
20190319151018 51 0.0 0.0 0.00 0.00 0.00 92 1013.2
20190319150019 51 111 2.0 4.0 0.00 0.00 0.00 92 1013.2
20190319145019 52 102 2.0 4.0 0.00 0.00 0.00 93 1013.2
20190319144017 52 154 0.0 1.0 0.00 0.00 0.00 94 1013.1
20190319143018 51 216 0.0 4.0 0.00 0.00 0.00 94 1012.9
20190319142017 50 205 1.0 4.0 0.00 0.00 0.00 94 1013.1
20190319141021 50 163 2.0 4.0 0.00 0.00 0.00 94 1012.9
20190319140017 49 183 1.0 2.0 0.00 0.00 0.00 94 1013.0
20190319135017 49 247 1.0 2.0 0.00 0.00 0.00 94 1012.9
20190319134017 49 193 1.0 3.0 0.00 0.00 0.00 94 1012.7
20190319133017 49 146 0.0 2.0 0.00 0.00 0.00 94 1012.7
20190319132016 49 224 0.0 1.0 0.00 0.00 0.00 94 1012.5
20190319131017 49 135 0.0 2.0 0.00 0.00 0.00 94 1012.5
20190319130017 49 133 1.0 2.0 0.00 0.00 0.00 94 1012.4
20190319125017 49 135 0.0 2.0 0.00 0.00 0.00 94 1012.2
20190319124017 48 135 0.0 1.0 0.00 0.00 0.00 94 1012.2
20190319123018 49 0.0 0.0 0.00 0.00 0.00 94 1012.4
20190319122021 49 157 1.0 2.0 0.00 0.00 0.00 93 1012.3
20190319121519 49 0.0 0.0 0.00 0.00 0.00 93 1012.5
20190319120520 49 201 1.0 2.0 0.00 0.00 0.00 93 1012.5
20190319115519 49 192 1.0 2.0 0.00 0.00 0.00 93 1012.5
20190319114519 49 136 1.0 3.0 0.00 0.00 0.00 93 1012.5
20190319113518 50 138 1.0 2.0 0.00 0.00 0.00 93 1012.5
20190319112518 50 202 0.0 1.0 0.00 0.00 0.00 93 1012.5
20190319111519 50 202 0.0 1.0 0.00 0.00 0.00 93 1012.5
20190319110518 51 0.0 0.0 0.00 0.00 0.00 93 1012.7
20190319105520 51 0.0 0.0 0.00 0.00 0.00 93 1012.7
20190319104519 51 0.0 0.0 0.00 0.00 0.00 93 1012.7
20190319103523 51 202 0.0 1.0 0.00 0.00 0.00 93 1012.9
20190319102519 51 0.0 0.0 0.00 0.00 0.00 92 1012.9
20190319101519 52 0.0 0.0 0.00 0.00 0.00 92 1012.9
20190319100518 52 202 0.0 1.0 0.00 0.00 0.00 92 1013.2
20190319095519 52 0.0 0.0 0.00 0.00 0.00 92 1013.3
20190319094518 52 202 0.0 1.0 0.00 0.00 0.00 92 1013.5
20190319093518 53 0.0 0.0 0.00 0.00 0.00 92 1013.5
20190319092518 53 201 0.0 1.0 0.00 0.00 0.00 92 1013.6
20190319091519 53 202 0.0 1.0 0.00 0.00 0.00 92 1013.8
20190319090519 53 95 2.0 4.0 0.00 0.00 0.00 92 1013.6
20190319085519 53 113 1.0 3.0 0.00 0.00 0.00 92 1013.9
20190319084517 53 125 1.0 3.0 0.00 0.00 0.00 92 1013.9
20190319083516 53 125 3.0 6.0 0.00 0.00 0.00 92 1014.0
20190319082517 53 97 4.0 7.0 0.00 0.00 0.00 92 1014.0
20190319081517 53 98 4.0 8.0 0.00 0.00 0.00 92 1014.0
20190319081019 53 88 4.0 7.0 0.00 0.00 0.00 92 1014.2
20190319080019 53 108 4.0 7.0 0.00 0.00 0.00 92 1014.3
20190319075018 53 103 5.0 8.0 0.00 0.00 0.00 91 1014.3
20190319074019 53 111 4.0 7.0 0.00 0.00 0.00 91 1014.2
20190319073019 53 94 5.0 9.0 0.00 0.00 0.00 91 1014.3
20190319072019 53 90 3.0 8.0 0.00 0.00 0.00 90 1014.6
20190319071023 53 99 5.0 11.0 0.00 0.00 0.00 90 1014.7
20190319070018 53 103 0.0 2.0 0.00 0.00 0.00 90 1014.9
20190319065018 53 92 2.0 4.0 0.00 0.00 0.00 90 1014.8
20190319064018 53 157 0.0 2.0 0.00 0.00 0.00 90 1014.9
20190319063019 53 170 0.0 2.0 0.00 0.00 0.00 90 1015.3
20190319062019 53 143 0.0 3.0 0.00 0.00 0.00 90 1015.5
20190319061019 53 180 0.0 3.0 0.00 0.00 0.00 90 1015.8
20190319060018 53 173 1.0 4.0 0.00 0.00 0.00 90 1015.9
20190319055018 53 136 1.0 4.0 0.00 0.00 0.00 91 1015.6
20190319054019 53 128 1.0 2.0 0.00 0.00 0.00 90 1015.6
20190319053018 53 121 1.0 4.0 0.00 0.00 0.00 90 1015.8
20190319052018 53 206 2.0 6.0 0.00 0.00 0.00 90 1015.9
20190319051019 53 206 0.0 4.0 0.00 0.00 0.00 90 1015.8
20190319050018 53 133 0.0 2.0 0.00 0.00 0.00 90 1015.6
20190319045018 53 225 0.0 2.0 0.00 0.00 0.00 90 1015.6
20190319044019 53 228 0.0 2.0 0.00 0.00 0.00 90 1015.6
20190319043018 53 249 2.0 4.0 0.00 0.00 0.00 90 1015.6
20190319042018 53 180 0.0 2.0 0.00 0.00 0.00 90 1015.5
20190319041016 53 130 1.0 3.0 0.00 0.00 0.00 89 1015.3
20190319040019 53 131 1.0 4.0 0.00 0.00 0.00 89 1015.3
20190319035018 53 213 1.0 5.0 0.00 0.00 0.00 89 1015.4
20190319034019 53 287 1.0 6.0 0.00 0.00 0.00 88 1015.5
20190319033023 53 303 1.0 4.0 0.00 0.00 0.00 88 1015.3
20190319032018 53 226 0.0 3.0 0.00 0.00 0.00 88 1014.9
20190319031019 53 296 0.0 2.0 0.00 0.00 0.00 87 1014.9
20190319030018 53 105 0.0 4.0 0.00 0.00 0.00 87 1014.9
20190319025018 53 136 1.0 4.0 0.00 0.00 0.00 86 1014.8
20190319024020 54 186 0.0 5.0 0.00 0.00 0.00 85 1014.8
20190319023018 54 245 2.0 7.0 0.00 0.00 0.00 84 1014.6
20190319022019 55 241 2.0 5.0 0.00 0.00 0.00 84 1014.4
20190319021019 55 128 1.0 3.0 0.00 0.00 0.00 84 1014.2
20190319020018 55 142 1.0 2.0 0.00 0.00 0.00 83 1014.3
20190319015018 55 116 2.0 6.0 0.00 0.00 0.00 81 1014.2
20190319014023 56 109 2.0 6.0 0.00 0.00 0.00 80 1014.2
20190319013024 57 80 4.0 8.0 0.00 0.00 0.00 77 1013.9
20190319012158 57 93 6.0 10.0 0.00 0.00 0.00 75 1013.9
20190319011017 59 89 2.0 4.0 0.00 0.00 0.00 73 1013.9
20190319010016 59 222 3.0 6.0 0.00 0.00 0.00 73 1013.7
20190319005017 60 238 2.0 6.0 0.00 0.00 0.00 72 1013.8
20190319004017 60 229 2.0 6.0 0.00 0.00 0.00 72 1013.7
20190319003016 59 219 2.0 8.0 0.00 0.00 0.00 73 1013.9
20190319002016 58 226 2.0 7.0 0.00 0.00 0.00 73 1013.9
20190319001017 60 232 4.0 10.0 0.00 0.00 0.00 70 1013.9
20190318235849 60 242 2.0 6.0 0.00 0.00 0.00 69 1013.9
20190318234848 60 245 3.0 9.0 0.00 0.00 0.00 68 1013.8
20190318233848 61 211 2.0 6.0 0.00 0.00 0.00 69 1013.9
20190318232849 61 272 2.0 9.0 0.00 0.00 0.00 69 1013.7
20190318231848 60 215 4.0 11.0 0.00 0.00 0.00 70 1013.8
20190318230849 60 206 6.0 14.0 0.00 0.00 0.00 70 1013.8
20190318225849 60 203 6.0 12.0 0.00 0.00 0.00 71 1013.8
20190318224849 61 226 4.0 12.0 0.00 0.00 0.00 72 1013.8
20190318223848 60 202 3.0 12.0 0.00 0.00 0.00 75 1013.9
20190318222849 59 216 3.0 11.0 0.00 0.00 0.00 77 1014.0
20190318221849 58 224 6.0 13.0 0.00 0.00 0.00 78 1013.9
20190318220849 58 228 8.0 14.0 0.00 0.00 0.00 78 1013.9
20190318215849 58 225 7.0 16.0 0.00 0.00 0.00 78 1014.0
20190318214848 58 215 7.0 13.0 0.00 0.00 0.00 76 1014.0
20190318213849 59 222 6.0 15.0 0.00 0.00 0.00 75 1014.2
20190318212849 59 230 5.0 13.0 0.00 0.00 0.00 73 1014.2
20190318211848 60 224 5.0 12.0 0.00 0.00 0.00 72 1014.4
20190318210848 61 219 5.0 14.0 0.00 0.00 0.00 71 1014.6
20190318205847 61 201 5.0 11.0 0.00 0.00 0.00 70 1014.7
20190318204846 61 210 6.0 13.0 0.00 0.00 0.00 70 1014.7
20190318203846 62 205 5.0 12.0 0.00 0.00 0.00 70 1014.8
20190318202847 62 237 4.0 9.0 0.00 0.00 0.00 70 1014.8
20190318201846 61 216 4.0 10.0 0.00 0.00 0.00 69 1014.9
20190318200846 61 211 5.0 10.0 0.00 0.00 0.00 69 1014.9
20190318195517 62 240 3.0 10.0 0.00 0.00 0.00 67 1015.1
20190318194517 64 254 4.0 10.0 0.00 0.00 0.00 63 1015.1
20190318193517 68 260 5.0 9.0 0.00 0.00 0.00 56 1015.1
20190318192517 70 247 4.0 7.0 0.00 0.00 0.00 54 1015.0
20190318191518 68 324 3.0 6.0 0.00 0.00 0.00 57 1015.1
20190318190518 66 35 1.0 4.0 0.00 0.00 0.00 58 1015.0